www.cux-wetter.de
Wetterdaten: Montag, 10.11.2014
Datum Zeit Temp. A. Feuchte A. Luftdruck Regen Wind Richtung Richtung Sonnenschein Solar Taupunkt Windchill Windben
10.11.2014 00:00 7,8 C 86 % 1007,5 hPa 0,0 l/m 17,6 km/h (3 Bft) S-SW 195 0 min 0 W/m 5,6 C 1,4 C 17,6 km/h (3 Bft)
10.11.2014 00:15 7,7 C 86 % 1007,5 hPa 0,0 l/m 15,7 km/h (3 Bft) S 190 0 min 0 W/m 5,5 C 2,0 C 15,7 km/h (3 Bft)
10.11.2014 00:30 7,6 C 86 % 1007,5 hPa 0,0 l/m 12,2 km/h (2 Bft) S-SW 195 0 min 0 W/m 5,4 C 3,6 C 12,2 km/h (2 Bft)
10.11.2014 00:45 7,6 C 86 % 1007,5 hPa 0,0 l/m 10,0 km/h (2 Bft) S 185 0 min 0 W/m 5,4 C 4,9 C 10,0 km/h (2 Bft)
10.11.2014 01:00 7,6 C 86 % 1007,5 hPa 0,0 l/m 11,0 km/h (2 Bft) S-SW 205 0 min 0 W/m 5,4 C 4,3 C 11,0 km/h (2 Bft)
10.11.2014 01:15 7,5 C 86 % 1007,5 hPa 0,0 l/m 13,8 km/h (3 Bft) SW 215 0 min 0 W/m 5,3 C 2,7 C 13,8 km/h (3 Bft)
10.11.2014 01:30 7,6 C 86 % 1007,5 hPa 0,0 l/m 7,4 km/h (2 Bft) S-SW 195 0 min 0 W/m 5,4 C 6,8 C 7,4 km/h (2 Bft)
10.11.2014 01:45 7,6 C 86 % 1007,5 hPa 0,0 l/m 9,2 km/h (2 Bft) S 180 0 min 0 W/m 5,4 C 5,5 C 9,2 km/h (2 Bft)
10.11.2014 02:00 7,6 C 86 % 1007,5 hPa 0,0 l/m 10,0 km/h (2 Bft) S 175 0 min 0 W/m 5,4 C 4,9 C 10,0 km/h (2 Bft)
10.11.2014 02:15 7,7 C 86 % 1007,5 hPa 0,0 l/m 9,3 km/h (2 Bft) S-SW 200 0 min 0 W/m 5,5 C 5,5 C 9,3 km/h (2 Bft)
10.11.2014 02:30 7,6 C 86 % 1007,5 hPa 0,0 l/m 8,9 km/h (2 Bft) S 180 0 min 0 W/m 5,4 C 5,7 C 8,9 km/h (2 Bft)
10.11.2014 02:45 7,6 C 86 % 1007,5 hPa 0,0 l/m 8,3 km/h (2 Bft) S-SO 160 0 min 0 W/m 5,4 C 6,1 C 8,3 km/h (2 Bft)
10.11.2014 03:00 7,6 C 86 % 1007,5 hPa 0,0 l/m 6,0 km/h (2 Bft) S-SO 160 0 min 0 W/m 5,4 C 7,6 C 6,0 km/h (2 Bft)
10.11.2014 03:15 7,6 C 87 % 1007,5 hPa 0,0 l/m 8,8 km/h (2 Bft) S 180 0 min 0 W/m 5,6 C 5,7 C 8,8 km/h (2 Bft)
10.11.2014 03:30 7,6 C 87 % 1007,5 hPa 0,0 l/m 6,1 km/h (2 Bft) S-SW 195 0 min 0 W/m 5,6 C 7,6 C 6,1 km/h (2 Bft)
10.11.2014 03:45 7,7 C 87 % 1007,5 hPa 0,0 l/m 5,8 km/h (2 Bft) S-SO 155 0 min 0 W/m 5,7 C 7,7 C 5,8 km/h (2 Bft)
10.11.2014 04:00 7,7 C 87 % 1007,5 hPa 0,0 l/m 8,7 km/h (2 Bft) S-SO 155 0 min 0 W/m 5,7 C 5,9 C 8,7 km/h (2 Bft)
10.11.2014 04:15 7,7 C 87 % 1007,5 hPa 0,0 l/m 10,6 km/h (2 Bft) S-SO 160 0 min 0 W/m 5,7 C 4,7 C 10,6 km/h (2 Bft)
10.11.2014 04:30 7,7 C 87 % 1007,5 hPa 0,0 l/m 8,7 km/h (2 Bft) S-SO 160 0 min 0 W/m 5,7 C 5,9 C 8,7 km/h (2 Bft)
10.11.2014 04:45 7,8 C 87 % 1007,5 hPa 0,0 l/m 12,5 km/h (2 Bft) S-SW 205 0 min 0 W/m 5,8 C 3,7 C 12,5 km/h (2 Bft)
10.11.2014 05:00 7,6 C 88 % 1007,5 hPa 0,0 l/m 12,3 km/h (2 Bft) S 190 0 min 0 W/m 5,7 C 3,6 C 12,3 km/h (2 Bft)
10.11.2014 05:15 7,8 C 88 % 1007,5 hPa 0,3 l/m 11,1 km/h (2 Bft) S 185 0 min 0 W/m 5,9 C 4,5 C 11,1 km/h (2 Bft)
10.11.2014 05:30 8,0 C 88 % 1007,5 hPa 0,3 l/m 11,1 km/h (2 Bft) S-SW 195 0 min 0 W/m 6,1 C 4,7 C 11,1 km/h (2 Bft)
10.11.2014 05:45 8,2 C 88 % 1007,5 hPa 0,3 l/m 9,9 km/h (2 Bft) S-SW 205 0 min 0 W/m 6,3 C 5,7 C 9,9 km/h (2 Bft)
10.11.2014 06:00 8,3 C 88 % 1007,5 hPa 0,3 l/m 6,8 km/h (2 Bft) S-SW 200 0 min 0 W/m 6,4 C 8,0 C 6,8 km/h (2 Bft)
10.11.2014 06:15 8,3 C 89 % 1007,5 hPa 0,0 l/m 6,0 km/h (2 Bft) S-SW 200 0 min 0 W/m 6,6 C 8,3 C 6,0 km/h (2 Bft)
10.11.2014 06:30 8,3 C 89 % 1007,5 hPa 0,0 l/m 5,5 km/h (2 Bft) S-SW 200 0 min 0 W/m 6,6 C 8,3 C 5,5 km/h (2 Bft)
10.11.2014 06:45 8,2 C 89 % 1007,5 hPa 0,0 l/m 10,9 km/h (2 Bft) S-SW 200 0 min 0 W/m 6,5 C 5,1 C 10,9 km/h (2 Bft)
10.11.2014 07:00 8,1 C 89 % 1007,5 hPa 0,0 l/m 5,4 km/h (2 Bft) S 180 0 min 0 W/m 6,4 C 8,1 C 5,4 km/h (2 Bft)
10.11.2014 07:15 8,2 C 89 % 1007,5 hPa 0,0 l/m 8,1 km/h (2 Bft) S-SW 200 0 min 0 W/m 6,5 C 6,9 C 8,1 km/h (2 Bft)
10.11.2014 07:30 8,2 C 89 % 1007,5 hPa 0,3 l/m 8,8 km/h (2 Bft) S-SW 200 0 min 0 W/m 6,5 C 6,4 C 8,8 km/h (2 Bft)
10.11.2014 07:45 8,2 C 89 % 1007,5 hPa 0,0 l/m 10,2 km/h (2 Bft) S 175 0 min 0 W/m 6,5 C 5,5 C 10,2 km/h (2 Bft)
10.11.2014 08:00 8,2 C 90 % 1007,5 hPa 0,3 l/m 10,7 km/h (2 Bft) S 180 0 min 0 W/m 6,7 C 5,2 C 10,7 km/h (2 Bft)
10.11.2014 08:15 8,2 C 90 % 1007,5 hPa 0,0 l/m 12,0 km/h (2 Bft) S 180 0 min 0 W/m 6,7 C 4,4 C 12,0 km/h (2 Bft)
10.11.2014 08:30 8,3 C 90 % 1007,5 hPa 0,0 l/m 10,4 km/h (2 Bft) S 185 0 min 0 W/m 6,8 C 5,5 C 10,4 km/h (2 Bft)
10.11.2014 08:45 8,3 C 90 % 1007,5 hPa 0,0 l/m 9,6 km/h (2 Bft) S 190 0 min 0 W/m 6,8 C 6,0 C 9,6 km/h (2 Bft)
10.11.2014 09:00 8,4 C 91 % 1007,5 hPa 0,0 l/m 10,8 km/h (2 Bft) S 170 0 min 0 W/m 7,0 C 5,3 C 10,8 km/h (2 Bft)
10.11.2014 09:15 8,4 C 91 % 1007,5 hPa 0,0 l/m 8,9 km/h (2 Bft) S 180 0 min 0 W/m 7,0 C 6,5 C 8,9 km/h (2 Bft)
10.11.2014 09:30 8,5 C 91 % 1007,5 hPa 0,0 l/m 12,8 km/h (3 Bft) S-SW 200 0 min 0 W/m 7,1 C 4,4 C 12,8 km/h (3 Bft)
10.11.2014 09:45 8,6 C 91 % 1007,5 hPa 0,0 l/m 10,8 km/h (2 Bft) S-SW 195 0 min 0 W/m 7,2 C 5,6 C 10,8 km/h (2 Bft)
10.11.2014 10:00 8,8 C 91 % 1007,5 hPa 0,3 l/m 13,1 km/h (3 Bft) S-SW 200 0 min 0 W/m 7,4 C 4,6 C 13,1 km/h (3 Bft)
10.11.2014 10:15 8,9 C 91 % 1007,5 hPa 0,3 l/m 14,4 km/h (3 Bft) SW 215 0 min 0 W/m 7,5 C 4,1 C 14,4 km/h (3 Bft)
10.11.2014 10:30 9,1 C 91 % 1007,5 hPa 0,0 l/m 14,1 km/h (3 Bft) SW 215 0 min 0 W/m 7,7 C 4,4 C 14,1 km/h (3 Bft)
10.11.2014 10:45 9,4 C 91 % 1007,5 hPa 0,0 l/m 12,6 km/h (3 Bft) S-SW 195 0 min 0 W/m 8,0 C 5,5 C 12,6 km/h (3 Bft)
10.11.2014 11:00 9,6 C 91 % 1007,5 hPa 0,0 l/m 9,9 km/h (2 Bft) S 180 0 min 0 W/m 8,2 C 7,2 C 9,9 km/h (2 Bft)
10.11.2014 11:15 9,8 C 91 % 1007,5 hPa 0,0 l/m 9,9 km/h (2 Bft) S 185 0 min 0 W/m 8,4 C 7,4 C 9,9 km/h (2 Bft)
10.11.2014 11:30 9,8 C 91 % 1007,5 hPa 0,0 l/m 12,1 km/h (2 Bft) S 170 0 min 0 W/m 8,4 C 6,2 C 12,1 km/h (2 Bft)
10.11.2014 11:45 9,9 C 92 % 1007,5 hPa 0,0 l/m 11,5 km/h (2 Bft) S-SW 195 0 min 0 W/m 8,7 C 6,7 C 11,5 km/h (2 Bft)
10.11.2014 12:00 10,0 C 92 % 1007,5 hPa 0,0 l/m 13,6 km/h (3 Bft) S 180 0 min 0 W/m 8,8 C 5,7 C 13,6 km/h (3 Bft)
10.11.2014 12:15 10,2 C 92 % 1007,5 hPa 0,0 l/m 11,8 km/h (2 Bft) S-SW 200 0 min 0 W/m 9,0 C 6,8 C 11,8 km/h (2 Bft)
10.11.2014 12:30 10,4 C 92 % 1007,5 hPa 0,0 l/m 17,1 km/h (3 Bft) SW 215 0 min 0 W/m 9,2 C 4,8 C 17,1 km/h (3 Bft)
10.11.2014 12:45 10,5 C 92 % 1006,5 hPa 0,0 l/m 17,0 km/h (3 Bft) W-SW 240 0 min 0 W/m 9,3 C 5,0 C 17,0 km/h (3 Bft)
10.11.2014 13:00 10,6 C 92 % 1006,5 hPa 0,0 l/m 18,0 km/h (3 Bft) SW 230 0 min 0 W/m 9,4 C 4,7 C 18,0 km/h (3 Bft)
10.11.2014 13:15 10,6 C 92 % 1006,5 hPa 0,0 l/m 18,0 km/h (3 Bft) SW 220 0 min 0 W/m 9,4 C 4,7 C 18,0 km/h (3 Bft)
10.11.2014 13:30 10,7 C 92 % 1006,5 hPa 0,0 l/m 15,3 km/h (3 Bft) SW 230 0 min 0 W/m 9,5 C 5,9 C 15,3 km/h (3 Bft)
10.11.2014 13:45 10,7 C 92 % 1006,5 hPa 0,0 l/m 18,9 km/h (3 Bft) W-SW 240 0 min 0 W/m 9,5 C 4,5 C 18,9 km/h (3 Bft)
10.11.2014 14:00 10,6 C 92 % 1006,5 hPa 0,0 l/m 18,2 km/h (3 Bft) W-SW 245 0 min 0 W/m 9,4 C 4,7 C 18,2 km/h (3 Bft)
10.11.2014 14:15 10,6 C 92 % 1006,5 hPa 0,0 l/m 21,5 km/h (4 Bft) W 260 0 min 0 W/m 9,4 C 3,6 C 21,5 km/h (4 Bft)
10.11.2014 14:30 10,7 C 92 % 1006,5 hPa 0,0 l/m 18,0 km/h (3 Bft) W 260 0 min 0 W/m 9,5 C 4,9 C 18,0 km/h (3 Bft)
10.11.2014 14:45 10,7 C 92 % 1006,5 hPa 0,0 l/m 20,1 km/h (4 Bft) W-SW 245 0 min 0 W/m 9,5 C 4,2 C 20,1 km/h (4 Bft)
10.11.2014 15:00 10,7 C 92 % 1006,5 hPa 0,0 l/m 14,8 km/h (3 Bft) SW 235 0 min 0 W/m 9,5 C 6,1 C 14,8 km/h (3 Bft)
10.11.2014 15:15 10,7 C 92 % 1006,5 hPa 0,0 l/m 17,5 km/h (3 Bft) W-SW 240 0 min 0 W/m 9,5 C 5,0 C 17,5 km/h (3 Bft)
10.11.2014 15:30 10,7 C 91 % 1006,5 hPa 0,0 l/m 13,8 km/h (3 Bft) SW 235 0 min 0 W/m 9,3 C 6,5 C 13,8 km/h (3 Bft)
10.11.2014 15:45 10,6 C 91 % 1006,5 hPa 0,0 l/m 9,8 km/h (2 Bft) SW 230 0 min 0 W/m 9,2 C 8,4 C 9,8 km/h (2 Bft)
10.11.2014 16:00 10,4 C 91 % 1006,5 hPa 0,0 l/m 10,0 km/h (2 Bft) SW 225 0 min 0 W/m 9,0 C 8,0 C 10,0 km/h (2 Bft)
10.11.2014 16:15 10,3 C 90 % 1007,5 hPa 0,0 l/m 10,1 km/h (2 Bft) S-SW 210 0 min 0 W/m 8,7 C 7,9 C 10,1 km/h (2 Bft)
10.11.2014 16:30 10,1 C 90 % 1007,5 hPa 0,0 l/m 10,4 km/h (2 Bft) S-SW 205 0 min 0 W/m 8,5 C 7,5 C 10,4 km/h (2 Bft)
10.11.2014 16:45 10,0 C 90 % 1007,5 hPa 0,0 l/m 13,0 km/h (3 Bft) S-SW 210 0 min 0 W/m 8,4 C 6,0 C 13,0 km/h (3 Bft)
10.11.2014 17:00 9,8 C 90 % 1007,5 hPa 0,0 l/m 11,7 km/h (2 Bft) S-SW 210 0 min 0 W/m 8,2 C 6,4 C 11,7 km/h (2 Bft)
10.11.2014 17:15 9,6 C 90 % 1007,5 hPa 0,0 l/m 52,1 km/h (7 Bft) S-SW 210 0 min 0 W/m 8,0 C -3,1 C 52,1 km/h (7 Bft)
10.11.2014 17:30 9,5 C 90 % 1007,5 hPa 0,0 l/m 12,0 km/h (2 Bft) S-SW 205 0 min 0 W/m 7,9 C 5,9 C 12,0 km/h (2 Bft)
10.11.2014 17:45 9,5 C 90 % 1007,5 hPa 0,0 l/m 12,3 km/h (2 Bft) S-SW 205 0 min 0 W/m 7,9 C 5,8 C 12,3 km/h (2 Bft)
10.11.2014 18:00 9,4 C 90 % 1007,5 hPa 0,0 l/m 9,0 km/h (2 Bft) S-SW 200 0 min 0 W/m 7,8 C 7,6 C 9,0 km/h (2 Bft)
10.11.2014 18:15 9,2 C 90 % 1007,5 hPa 0,0 l/m 10,5 km/h (2 Bft) S-SW 200 0 min 0 W/m 7,6 C 6,4 C 10,5 km/h (2 Bft)
10.11.2014 18:30 9,2 C 90 % 1007,5 hPa 0,0 l/m 7,8 km/h (2 Bft) S 185 0 min 0 W/m 7,6 C 8,2 C 7,8 km/h (2 Bft)
10.11.2014 18:45 9,1 C 90 % 1007,5 hPa 0,0 l/m 9,0 km/h (2 Bft) S 170 0 min 0 W/m 7,5 C 7,2 C 9,0 km/h (2 Bft)
10.11.2014 19:00 9,0 C 90 % 1007,5 hPa 0,0 l/m 7,6 km/h (2 Bft) S 170 0 min 0 W/m 7,4 C 8,1 C 7,6 km/h (2 Bft)
10.11.2014 19:15 8,9 C 90 % 1007,5 hPa 0,0 l/m 8,3 km/h (2 Bft) S 175 0 min 0 W/m 7,4 C 7,5 C 8,3 km/h (2 Bft)
10.11.2014 19:30 8,9 C 90 % 1007,5 hPa 0,0 l/m 9,0 km/h (2 Bft) S 175 0 min 0 W/m 7,4 C 7,0 C 9,0 km/h (2 Bft)
10.11.2014 19:45 8,8 C 89 % 1007,5 hPa 0,0 l/m 8,3 km/h (2 Bft) S 175 0 min 0 W/m 7,1 C 7,4 C 8,3 km/h (2 Bft)
10.11.2014 20:00 8,6 C 89 % 1007,5 hPa 0,0 l/m 7,1 km/h (2 Bft) S 185 0 min 0 W/m 6,9 C 8,1 C 7,1 km/h (2 Bft)
10.11.2014 20:15 8,5 C 89 % 1008,5 hPa 0,0 l/m 7,4 km/h (2 Bft) S 175 0 min 0 W/m 6,8 C 7,7 C 7,4 km/h (2 Bft)
10.11.2014 20:30 8,3 C 89 % 1008,5 hPa 0,0 l/m 10,9 km/h (2 Bft) S 185 0 min 0 W/m 6,6 C 5,2 C 10,9 km/h (2 Bft)
10.11.2014 20:45 8,3 C 89 % 1008,5 hPa 0,0 l/m 6,0 km/h (2 Bft) S-SW 195 0 min 0 W/m 6,6 C 8,3 C 6,0 km/h (2 Bft)
10.11.2014 21:00 8,2 C 89 % 1008,5 hPa 0,0 l/m 5,8 km/h (2 Bft) S-SW 200 0 min 0 W/m 6,5 C 8,2 C 5,8 km/h (2 Bft)
10.11.2014 21:15 8,2 C 89 % 1008,5 hPa 0,0 l/m 6,2 km/h (2 Bft) S 185 0 min 0 W/m 6,5 C 8,2 C 6,2 km/h (2 Bft)
10.11.2014 21:30 8,1 C 89 % 1008,5 hPa 0,0 l/m 6,9 km/h (2 Bft) S-SW 195 0 min 0 W/m 6,4 C 7,7 C 6,9 km/h (2 Bft)
10.11.2014 21:45 8,0 C 89 % 1008,5 hPa 0,0 l/m 7,1 km/h (2 Bft) S-SW 195 0 min 0 W/m 6,3 C 7,4 C 7,1 km/h (2 Bft)
10.11.2014 22:00 8,1 C 89 % 1008,5 hPa 0,0 l/m 10,8 km/h (2 Bft) S-SW 200 0 min 0 W/m 6,4 C 5,0 C 10,8 km/h (2 Bft)
10.11.2014 22:15 8,2 C 89 % 1008,5 hPa 0,0 l/m 11,8 km/h (2 Bft) S-SW 210 0 min 0 W/m 6,5 C 4,6 C 11,8 km/h (2 Bft)
10.11.2014 22:30 8,4 C 89 % 1008,5 hPa 0,0 l/m 12,4 km/h (2 Bft) S-SW 210 0 min 0 W/m 6,7 C 4,5 C 12,4 km/h (2 Bft)
10.11.2014 22:45 8,4 C 89 % 1008,5 hPa 0,0 l/m 10,8 km/h (2 Bft) S-SW 205 0 min 0 W/m 6,7 C 5,3 C 10,8 km/h (2 Bft)
10.11.2014 23:00 8,3 C 89 % 1008,5 hPa 0,0 l/m 10,2 km/h (2 Bft) S-SW 210 0 min 0 W/m 6,6 C 5,6 C 10,2 km/h (2 Bft)
10.11.2014 23:15 8,1 C 89 % 1008,5 hPa 0,0 l/m 8,9 km/h (2 Bft) S 175 0 min 0 W/m 6,4 C 6,2 C 8,9 km/h (2 Bft)
10.11.2014 23:30 7,9 C 88 % 1008,5 hPa 0,0 l/m 7,3 km/h (2 Bft) S 170 0 min 0 W/m 6,0 C 7,2 C 7,3 km/h (2 Bft)
10.11.2014 23:45 7,7 C 88 % 1009,5 hPa 0,0 l/m 8,2 km/h (2 Bft) S-SO 160 0 min 0 W/m 5,8 C 6,3 C 8,2 km/h (2 Bft)
_ Min-Zeit 01:15 00:00 12:45 - 07:00 - - - - 01:15 17:15 07:00
Minimum _ 7,5 C 86 % 1006,5 hPa - 5,4 km/h (2 Bft) - - - - 5,3 C -3,1 C 5,4 km/h (2 Bft)
_ Max-Zeit 13:30 11:45 23:45 05:15 17:15 - - 00:00 00:00 13:30 15:45 17:15
Maximum _ 10,7 C 92 % 1009,5 hPa 0,3 l/m 52,1 km/h
S-SW (7 Bft)
- - 0 min 0 W/m 9,5 C 8,4 C 52,1 km/h
S-SW (7 Bft)
Durchschnitt _ 8,8 C 89 % 1007,5 hPa #2,4 l/m 11,3 km/h (2 Bft) S-SW - #0 min. 0 W/m 7,2 C 5,9 C 11,3 km/h (2 Bft)
copyright by Holger Just